sensor_id;sensor_type;location;lat;lon;timestamp;P1;durP1;ratioP1;P2;durP2;ratioP2
9200;SDS011;4635;48.686;9.008;2022-10-22T00:01:03;3.37;;;1.63;;
9200;SDS011;4635;48.686;9.008;2022-10-22T00:03:37;3.43;;;1.20;;
9200;SDS011;4635;48.686;9.008;2022-10-22T00:06:11;2.73;;;1.17;;
9200;SDS011;4635;48.686;9.008;2022-10-22T00:08:46;3.17;;;1.10;;
9200;SDS011;4635;48.686;9.008;2022-10-22T00:11:23;3.00;;;1.07;;
9200;SDS011;4635;48.686;9.008;2022-10-22T00:13:59;4.87;;;1.10;;
9200;SDS011;4635;48.686;9.008;2022-10-22T00:16:34;2.23;;;0.90;;
9200;SDS011;4635;48.686;9.008;2022-10-22T00:19:08;3.30;;;1.03;;
9200;SDS011;4635;48.686;9.008;2022-10-22T00:21:43;2.40;;;0.80;;
9200;SDS011;4635;48.686;9.008;2022-10-22T00:24:18;2.90;;;0.60;;
9200;SDS011;4635;48.686;9.008;2022-10-22T00:26:56;8.20;;;1.37;;
9200;SDS011;4635;48.686;9.008;2022-10-22T00:29:36;1.90;;;0.80;;
9200;SDS011;4635;48.686;9.008;2022-10-22T00:32:15;2.30;;;0.90;;
9200;SDS011;4635;48.686;9.008;2022-10-22T00:34:51;4.63;;;1.33;;
9200;SDS011;4635;48.686;9.008;2022-10-22T00:37:30;2.47;;;0.87;;
9200;SDS011;4635;48.686;9.008;2022-10-22T00:40:05;4.03;;;1.00;;
9200;SDS011;4635;48.686;9.008;2022-10-22T00:42:45;2.97;;;1.03;;
9200;SDS011;4635;48.686;9.008;2022-10-22T00:45:21;4.23;;;1.20;;
9200;SDS011;4635;48.686;9.008;2022-10-22T00:47:59;3.60;;;1.07;;
9200;SDS011;4635;48.686;9.008;2022-10-22T00:50:36;4.47;;;0.93;;
9200;SDS011;4635;48.686;9.008;2022-10-22T00:53:14;4.43;;;1.17;;
9200;SDS011;4635;48.686;9.008;2022-10-22T00:55:49;1.97;;;0.80;;
9200;SDS011;4635;48.686;9.008;2022-10-22T00:58:32;4.97;;;0.97;;
9200;SDS011;4635;48.686;9.008;2022-10-22T01:01:05;2.90;;;1.00;;
9200;SDS011;4635;48.686;9.008;2022-10-22T01:03:51;3.50;;;1.00;;
9200;SDS011;4635;48.686;9.008;2022-10-22T01:06:27;2.30;;;0.90;;
9200;SDS011;4635;48.686;9.008;2022-10-22T01:09:08;7.27;;;1.10;;
9200;SDS011;4635;48.686;9.008;2022-10-22T01:11:56;4.30;;;1.30;;
9200;SDS011;4635;48.686;9.008;2022-10-22T01:14:39;3.53;;;1.13;;
9200;SDS011;4635;48.686;9.008;2022-10-22T01:17:23;5.73;;;1.50;;
9200;SDS011;4635;48.686;9.008;2022-10-22T01:20:08;7.83;;;1.47;;
9200;SDS011;4635;48.686;9.008;2022-10-22T01:22:57;2.63;;;1.13;;
9200;SDS011;4635;48.686;9.008;2022-10-22T01:25:41;3.37;;;1.10;;
9200;SDS011;4635;48.686;9.008;2022-10-22T01:31:17;7.63;;;1.17;;
9200;SDS011;4635;48.686;9.008;2022-10-22T01:33:54;4.50;;;1.10;;
9200;SDS011;4635;48.686;9.008;2022-10-22T01:36:30;2.40;;;1.00;;
9200;SDS011;4635;48.686;9.008;2022-10-22T01:39:10;7.20;;;1.33;;
9200;SDS011;4635;48.686;9.008;2022-10-22T01:41:53;4.10;;;0.90;;
9200;SDS011;4635;48.686;9.008;2022-10-22T01:44:40;3.00;;;1.20;;
9200;SDS011;4635;48.686;9.008;2022-10-22T01:47:22;2.23;;;0.97;;
9200;SDS011;4635;48.686;9.008;2022-10-22T01:50:24;4.27;;;1.40;;
9200;SDS011;4635;48.686;9.008;2022-10-22T01:53:41;7.97;;;1.27;;
9200;SDS011;4635;48.686;9.008;2022-10-22T01:56:30;9.50;;;1.10;;
9200;SDS011;4635;48.686;9.008;2022-10-22T01:59:20;3.50;;;1.20;;
9200;SDS011;4635;48.686;9.008;2022-10-22T02:02:09;3.20;;;1.20;;
9200;SDS011;4635;48.686;9.008;2022-10-22T02:04:54;2.37;;;1.00;;
9200;SDS011;4635;48.686;9.008;2022-10-22T02:07:33;3.17;;;0.93;;
9200;SDS011;4635;48.686;9.008;2022-10-22T02:10:11;4.60;;;0.80;;
9200;SDS011;4635;48.686;9.008;2022-10-22T02:12:48;4.30;;;1.73;;
9200;SDS011;4635;48.686;9.008;2022-10-22T02:15:25;2.27;;;0.90;;
9200;SDS011;4635;48.686;9.008;2022-10-22T02:18:05;6.80;;;1.10;;
9200;SDS011;4635;48.686;9.008;2022-10-22T02:20:45;2.60;;;0.90;;
9200;SDS011;4635;48.686;9.008;2022-10-22T02:23:26;2.80;;;0.90;;
9200;SDS011;4635;48.686;9.008;2022-10-22T02:26:06;3.97;;;0.80;;
9200;SDS011;4635;48.686;9.008;2022-10-22T02:28:49;2.30;;;0.90;;
9200;SDS011;4635;48.686;9.008;2022-10-22T02:31:31;4.20;;;1.10;;
9200;SDS011;4635;48.686;9.008;2022-10-22T02:34:11;2.40;;;0.80;;
9200;SDS011;4635;48.686;9.008;2022-10-22T02:36:58;2.60;;;1.30;;
9200;SDS011;4635;48.686;9.008;2022-10-22T02:39:40;5.00;;;1.17;;
9200;SDS011;4635;48.686;9.008;2022-10-22T02:42:16;5.10;;;1.27;;
9200;SDS011;4635;48.686;9.008;2022-10-22T02:44:53;2.70;;;0.80;;
9200;SDS011;4635;48.686;9.008;2022-10-22T02:47:28;2.97;;;1.00;;
9200;SDS011;4635;48.686;9.008;2022-10-22T02:50:13;3.53;;;1.10;;
9200;SDS011;4635;48.686;9.008;2022-10-22T02:52:54;2.53;;;0.90;;
9200;SDS011;4635;48.686;9.008;2022-10-22T02:55:30;2.67;;;0.90;;
9200;SDS011;4635;48.686;9.008;2022-10-22T02:58:09;2.77;;;1.00;;
9200;SDS011;4635;48.686;9.008;2022-10-22T03:00:45;26.87;;;1.53;;
9200;SDS011;4635;48.686;9.008;2022-10-22T03:03:23;2.27;;;1.00;;
9200;SDS011;4635;48.686;9.008;2022-10-22T03:06:00;3.30;;;1.23;;
9200;SDS011;4635;48.686;9.008;2022-10-22T03:08:37;2.20;;;0.90;;
9200;SDS011;4635;48.686;9.008;2022-10-22T03:11:12;6.50;;;0.93;;
9200;SDS011;4635;48.686;9.008;2022-10-22T03:13:46;2.77;;;1.00;;
9200;SDS011;4635;48.686;9.008;2022-10-22T03:16:24;3.70;;;1.30;;
9200;SDS011;4635;48.686;9.008;2022-10-22T03:18:57;2.20;;;0.87;;
9200;SDS011;4635;48.686;9.008;2022-10-22T03:21:34;2.20;;;0.80;;
9200;SDS011;4635;48.686;9.008;2022-10-22T03:24:15;2.97;;;1.00;;
9200;SDS011;4635;48.686;9.008;2022-10-22T03:26:53;4.10;;;0.80;;
9200;SDS011;4635;48.686;9.008;2022-10-22T03:29:29;3.47;;;0.80;;
9200;SDS011;4635;48.686;9.008;2022-10-22T03:32:07;2.93;;;0.90;;
9200;SDS011;4635;48.686;9.008;2022-10-22T03:34:42;5.00;;;0.80;;
9200;SDS011;4635;48.686;9.008;2022-10-22T03:37:18;3.93;;;1.00;;
9200;SDS011;4635;48.686;9.008;2022-10-22T03:39:57;3.30;;;1.17;;
9200;SDS011;4635;48.686;9.008;2022-10-22T03:42:33;1.97;;;0.80;;
9200;SDS011;4635;48.686;9.008;2022-10-22T03:45:08;4.03;;;0.90;;
9200;SDS011;4635;48.686;9.008;2022-10-22T03:47:44;4.30;;;1.50;;
9200;SDS011;4635;48.686;9.008;2022-10-22T03:50:21;2.30;;;1.10;;
9200;SDS011;4635;48.686;9.008;2022-10-22T03:53:01;4.90;;;0.77;;
9200;SDS011;4635;48.686;9.008;2022-10-22T03:55:42;5.70;;;1.07;;
9200;SDS011;4635;48.686;9.008;2022-10-22T03:58:19;2.20;;;0.73;;
9200;SDS011;4635;48.686;9.008;2022-10-22T04:00:54;4.00;;;1.13;;
9200;SDS011;4635;48.686;9.008;2022-10-22T04:03:35;2.67;;;1.00;;
9200;SDS011;4635;48.686;9.008;2022-10-22T04:06:11;4.77;;;1.10;;
9200;SDS011;4635;48.686;9.008;2022-10-22T04:08:47;2.93;;;0.90;;
9200;SDS011;4635;48.686;9.008;2022-10-22T04:11:26;2.40;;;1.10;;
9200;SDS011;4635;48.686;9.008;2022-10-22T04:14:00;2.83;;;1.17;;
9200;SDS011;4635;48.686;9.008;2022-10-22T04:16:37;3.60;;;1.30;;
9200;SDS011;4635;48.686;9.008;2022-10-22T04:19:13;2.10;;;0.87;;
9200;SDS011;4635;48.686;9.008;2022-10-22T04:21:47;4.73;;;0.90;;
9200;SDS011;4635;48.686;9.008;2022-10-22T04:24:22;5.10;;;0.90;;
9200;SDS011;4635;48.686;9.008;2022-10-22T04:27:03;4.57;;;1.10;;
9200;SDS011;4635;48.686;9.008;2022-10-22T04:29:42;5.13;;;0.90;;
9200;SDS011;4635;48.686;9.008;2022-10-22T04:32:17;9.60;;;1.10;;
9200;SDS011;4635;48.686;9.008;2022-10-22T04:34:53;8.03;;;1.00;;
9200;SDS011;4635;48.686;9.008;2022-10-22T04:37:32;4.83;;;0.97;;
9200;SDS011;4635;48.686;9.008;2022-10-22T04:40:07;9.13;;;0.90;;
9200;SDS011;4635;48.686;9.008;2022-10-22T04:42:48;2.77;;;1.03;;
9200;SDS011;4635;48.686;9.008;2022-10-22T04:45:22;2.60;;;1.00;;
9200;SDS011;4635;48.686;9.008;2022-10-22T04:48:00;10.43;;;1.17;;
9200;SDS011;4635;48.686;9.008;2022-10-22T04:50:39;2.60;;;0.90;;
9200;SDS011;4635;48.686;9.008;2022-10-22T04:53:13;2.97;;;0.90;;
9200;SDS011;4635;48.686;9.008;2022-10-22T04:55:50;5.87;;;1.50;;
9200;SDS011;4635;48.686;9.008;2022-10-22T04:58:29;2.67;;;0.97;;
9200;SDS011;4635;48.686;9.008;2022-10-22T05:01:12;5.33;;;1.87;;
9200;SDS011;4635;48.686;9.008;2022-10-22T05:03:52;2.57;;;1.33;;
9200;SDS011;4635;48.686;9.008;2022-10-22T05:06:29;3.93;;;1.10;;
9200;SDS011;4635;48.686;9.008;2022-10-22T05:09:13;5.63;;;1.00;;
9200;SDS011;4635;48.686;9.008;2022-10-22T05:11:50;2.20;;;1.10;;
9200;SDS011;4635;48.686;9.008;2022-10-22T05:14:29;2.90;;;0.73;;
9200;SDS011;4635;48.686;9.008;2022-10-22T05:17:02;5.00;;;1.10;;
9200;SDS011;4635;48.686;9.008;2022-10-22T05:19:37;3.20;;;1.30;;
9200;SDS011;4635;48.686;9.008;2022-10-22T05:22:17;3.17;;;1.30;;
9200;SDS011;4635;48.686;9.008;2022-10-22T05:24:51;4.13;;;0.90;;
9200;SDS011;4635;48.686;9.008;2022-10-22T05:27:31;2.27;;;0.70;;
9200;SDS011;4635;48.686;9.008;2022-10-22T05:30:13;3.20;;;1.00;;
9200;SDS011;4635;48.686;9.008;2022-10-22T05:32:48;2.40;;;1.10;;
9200;SDS011;4635;48.686;9.008;2022-10-22T05:35:27;5.40;;;1.10;;
9200;SDS011;4635;48.686;9.008;2022-10-22T05:38:05;4.00;;;1.10;;
9200;SDS011;4635;48.686;9.008;2022-10-22T05:40:58;6.60;;;1.10;;
9200;SDS011;4635;48.686;9.008;2022-10-22T05:43:39;4.03;;;1.13;;
9200;SDS011;4635;48.686;9.008;2022-10-22T05:46:16;2.37;;;1.10;;
9200;SDS011;4635;48.686;9.008;2022-10-22T05:48:59;4.00;;;0.70;;
9200;SDS011;4635;48.686;9.008;2022-10-22T05:51:47;5.00;;;1.30;;
9200;SDS011;4635;48.686;9.008;2022-10-22T05:54:36;2.73;;;0.93;;
9200;SDS011;4635;48.686;9.008;2022-10-22T05:57:19;3.80;;;1.57;;
9200;SDS011;4635;48.686;9.008;2022-10-22T06:00:01;3.30;;;1.37;;
9200;SDS011;4635;48.686;9.008;2022-10-22T06:05:54;1.77;;;0.87;;
9200;SDS011;4635;48.686;9.008;2022-10-22T06:08:36;3.97;;;1.17;;
9200;SDS011;4635;48.686;9.008;2022-10-22T06:11:19;6.93;;;1.20;;
9200;SDS011;4635;48.686;9.008;2022-10-22T06:14:11;3.57;;;1.10;;
9200;SDS011;4635;48.686;9.008;2022-10-22T06:16:57;6.27;;;1.13;;
9200;SDS011;4635;48.686;9.008;2022-10-22T06:19:43;5.73;;;1.20;;
9200;SDS011;4635;48.686;9.008;2022-10-22T06:22:19;3.10;;;1.50;;
9200;SDS011;4635;48.686;9.008;2022-10-22T06:24:58;5.10;;;0.80;;
9200;SDS011;4635;48.686;9.008;2022-10-22T06:27:36;4.07;;;0.90;;
9200;SDS011;4635;48.686;9.008;2022-10-22T06:30:35;2.80;;;1.07;;
9200;SDS011;4635;48.686;9.008;2022-10-22T06:33:12;3.87;;;1.00;;
9200;SDS011;4635;48.686;9.008;2022-10-22T06:36:02;2.53;;;1.03;;
9200;SDS011;4635;48.686;9.008;2022-10-22T06:38:41;3.60;;;0.80;;
9200;SDS011;4635;48.686;9.008;2022-10-22T06:41:19;3.67;;;0.97;;
9200;SDS011;4635;48.686;9.008;2022-10-22T06:43:57;5.93;;;0.90;;
9200;SDS011;4635;48.686;9.008;2022-10-22T06:46:47;4.27;;;0.80;;
9200;SDS011;4635;48.686;9.008;2022-10-22T06:49:27;4.47;;;1.00;;
9200;SDS011;4635;48.686;9.008;2022-10-22T06:52:17;2.43;;;0.80;;
9200;SDS011;4635;48.686;9.008;2022-10-22T06:54:54;3.23;;;1.50;;
9200;SDS011;4635;48.686;9.008;2022-10-22T06:57:36;5.57;;;1.50;;
9200;SDS011;4635;48.686;9.008;2022-10-22T07:00:14;8.30;;;1.00;;
9200;SDS011;4635;48.686;9.008;2022-10-22T07:03:02;2.40;;;0.90;;
9200;SDS011;4635;48.686;9.008;2022-10-22T07:05:51;3.10;;;0.90;;
9200;SDS011;4635;48.686;9.008;2022-10-22T07:08:42;2.83;;;1.23;;
9200;SDS011;4635;48.686;9.008;2022-10-22T07:11:20;5.60;;;0.93;;
9200;SDS011;4635;48.686;9.008;2022-10-22T07:14:07;4.60;;;1.43;;
9200;SDS011;4635;48.686;9.008;2022-10-22T07:16:47;2.30;;;1.10;;
9200;SDS011;4635;48.686;9.008;2022-10-22T07:19:26;6.23;;;1.40;;
9200;SDS011;4635;48.686;9.008;2022-10-22T07:22:02;7.70;;;1.37;;
9200;SDS011;4635;48.686;9.008;2022-10-22T07:25:03;4.33;;;1.57;;
9200;SDS011;4635;48.686;9.008;2022-10-22T07:27:45;2.33;;;0.90;;
9200;SDS011;4635;48.686;9.008;2022-10-22T07:30:30;5.83;;;1.33;;
9200;SDS011;4635;48.686;9.008;2022-10-22T07:33:12;6.10;;;1.57;;
9200;SDS011;4635;48.686;9.008;2022-10-22T07:35:58;5.23;;;1.37;;
9200;SDS011;4635;48.686;9.008;2022-10-22T07:38:36;2.37;;;0.90;;
9200;SDS011;4635;48.686;9.008;2022-10-22T07:41:24;2.00;;;0.87;;
9200;SDS011;4635;48.686;9.008;2022-10-22T07:44:03;2.43;;;1.73;;
9200;SDS011;4635;48.686;9.008;2022-10-22T07:46:48;4.20;;;1.50;;
9200;SDS011;4635;48.686;9.008;2022-10-22T07:49:28;5.00;;;2.20;;
9200;SDS011;4635;48.686;9.008;2022-10-22T07:52:07;3.40;;;1.33;;
9200;SDS011;4635;48.686;9.008;2022-10-22T07:54:45;5.10;;;1.33;;
9200;SDS011;4635;48.686;9.008;2022-10-22T07:57:27;2.50;;;1.27;;
9200;SDS011;4635;48.686;9.008;2022-10-22T08:00:03;3.60;;;2.03;;
9200;SDS011;4635;48.686;9.008;2022-10-22T08:02:39;3.53;;;1.33;;
9200;SDS011;4635;48.686;9.008;2022-10-22T08:05:17;1.50;;;1.03;;
9200;SDS011;4635;48.686;9.008;2022-10-22T08:08:07;1.37;;;0.90;;
9200;SDS011;4635;48.686;9.008;2022-10-22T08:10:50;3.63;;;2.00;;
9200;SDS011;4635;48.686;9.008;2022-10-22T08:13:45;5.00;;;1.40;;
9200;SDS011;4635;48.686;9.008;2022-10-22T08:16:25;1.40;;;1.07;;
9200;SDS011;4635;48.686;9.008;2022-10-22T08:19:11;1.80;;;1.20;;
9200;SDS011;4635;48.686;9.008;2022-10-22T08:21:58;2.80;;;1.27;;
9200;SDS011;4635;48.686;9.008;2022-10-22T08:24:42;0.87;;;0.80;;
9200;SDS011;4635;48.686;9.008;2022-10-22T08:27:32;1.07;;;0.97;;
9200;SDS011;4635;48.686;9.008;2022-10-22T08:33:15;2.50;;;0.97;;
9200;SDS011;4635;48.686;9.008;2022-10-22T08:36:07;4.73;;;1.40;;
9200;SDS011;4635;48.686;9.008;2022-10-22T08:38:50;3.60;;;0.80;;
9200;SDS011;4635;48.686;9.008;2022-10-22T08:41:35;1.03;;;0.93;;
9200;SDS011;4635;48.686;9.008;2022-10-22T08:44:37;2.60;;;0.90;;
9200;SDS011;4635;48.686;9.008;2022-10-22T08:47:52;1.40;;;0.90;;
9200;SDS011;4635;48.686;9.008;2022-10-22T08:50:49;2.07;;;0.90;;
9200;SDS011;4635;48.686;9.008;2022-10-22T08:53:31;3.83;;;1.20;;
9200;SDS011;4635;48.686;9.008;2022-10-22T08:56:12;7.13;;;0.90;;
9200;SDS011;4635;48.686;9.008;2022-10-22T08:59:08;3.63;;;0.90;;
9200;SDS011;4635;48.686;9.008;2022-10-22T09:01:59;1.20;;;1.10;;
9200;SDS011;4635;48.686;9.008;2022-10-22T09:04:55;5.40;;;0.80;;
9200;SDS011;4635;48.686;9.008;2022-10-22T09:07:42;1.63;;;0.97;;
9200;SDS011;4635;48.686;9.008;2022-10-22T09:10:22;0.80;;;0.50;;
9200;SDS011;4635;48.686;9.008;2022-10-22T09:13:09;2.33;;;1.13;;
9200;SDS011;4635;48.686;9.008;2022-10-22T09:16:17;2.33;;;1.10;;
9200;SDS011;4635;48.686;9.008;2022-10-22T09:19:19;1.77;;;0.70;;
9200;SDS011;4635;48.686;9.008;2022-10-22T09:22:14;3.43;;;0.67;;
9200;SDS011;4635;48.686;9.008;2022-10-22T09:25:15;0.93;;;0.70;;
9200;SDS011;4635;48.686;9.008;2022-10-22T09:28:01;1.90;;;0.87;;
9200;SDS011;4635;48.686;9.008;2022-10-22T09:30:48;1.07;;;0.80;;
9200;SDS011;4635;48.686;9.008;2022-10-22T09:33:28;1.20;;;1.03;;
9200;SDS011;4635;48.686;9.008;2022-10-22T09:36:15;1.93;;;0.80;;
9200;SDS011;4635;48.686;9.008;2022-10-22T09:42:20;2.37;;;0.90;;
9200;SDS011;4635;48.686;9.008;2022-10-22T09:45:19;2.60;;;1.53;;
9200;SDS011;4635;48.686;9.008;2022-10-22T09:48:18;6.60;;;1.10;;
9200;SDS011;4635;48.686;9.008;2022-10-22T09:51:09;1.10;;;0.60;;
9200;SDS011;4635;48.686;9.008;2022-10-22T09:54:07;1.33;;;0.90;;
9200;SDS011;4635;48.686;9.008;2022-10-22T09:57:13;1.10;;;0.80;;
9200;SDS011;4635;48.686;9.008;2022-10-22T09:59:57;1.47;;;0.77;;
9200;SDS011;4635;48.686;9.008;2022-10-22T10:02:45;3.00;;;1.47;;
9200;SDS011;4635;48.686;9.008;2022-10-22T10:05:31;1.00;;;0.90;;
9200;SDS011;4635;48.686;9.008;2022-10-22T10:08:31;2.33;;;0.90;;
9200;SDS011;4635;48.686;9.008;2022-10-22T10:14:52;2.40;;;1.10;;
9200;SDS011;4635;48.686;9.008;2022-10-22T10:17:56;8.63;;;1.60;;
9200;SDS011;4635;48.686;9.008;2022-10-22T10:21:05;1.03;;;0.83;;
9200;SDS011;4635;48.686;9.008;2022-10-22T10:27:21;4.67;;;0.90;;
9200;SDS011;4635;48.686;9.008;2022-10-22T10:30:20;2.60;;;1.10;;
9200;SDS011;4635;48.686;9.008;2022-10-22T10:33:11;2.73;;;1.10;;
9200;SDS011;4635;48.686;9.008;2022-10-22T10:36:08;5.07;;;1.57;;
9200;SDS011;4635;48.686;9.008;2022-10-22T10:39:06;5.10;;;1.50;;
9200;SDS011;4635;48.686;9.008;2022-10-22T10:42:00;2.50;;;1.70;;
9200;SDS011;4635;48.686;9.008;2022-10-22T10:45:21;4.43;;;1.30;;
9200;SDS011;4635;48.686;9.008;2022-10-22T10:51:50;2.03;;;0.97;;
9200;SDS011;4635;48.686;9.008;2022-10-22T10:54:42;7.80;;;1.90;;
9200;SDS011;4635;48.686;9.008;2022-10-22T10:57:35;3.43;;;1.23;;
9200;SDS011;4635;48.686;9.008;2022-10-22T11:00:40;3.00;;;1.10;;
9200;SDS011;4635;48.686;9.008;2022-10-22T11:03:33;1.77;;;1.50;;
9200;SDS011;4635;48.686;9.008;2022-10-22T11:06:32;5.80;;;1.73;;
9200;SDS011;4635;48.686;9.008;2022-10-22T11:09:17;3.63;;;1.80;;
9200;SDS011;4635;48.686;9.008;2022-10-22T11:12:01;2.83;;;1.10;;
9200;SDS011;4635;48.686;9.008;2022-10-22T11:14:57;3.20;;;1.20;;
9200;SDS011;4635;48.686;9.008;2022-10-22T11:21:09;3.80;;;1.93;;
9200;SDS011;4635;48.686;9.008;2022-10-22T11:23:56;1.70;;;0.90;;
9200;SDS011;4635;48.686;9.008;2022-10-22T11:27:21;1.83;;;0.90;;
9200;SDS011;4635;48.686;9.008;2022-10-22T11:30:11;3.00;;;1.30;;
9200;SDS011;4635;48.686;9.008;2022-10-22T11:33:01;4.43;;;2.27;;
9200;SDS011;4635;48.686;9.008;2022-10-22T11:35:55;1.80;;;1.37;;
9200;SDS011;4635;48.686;9.008;2022-10-22T11:41:53;2.90;;;1.43;;
9200;SDS011;4635;48.686;9.008;2022-10-22T11:44:49;3.13;;;1.17;;
9200;SDS011;4635;48.686;9.008;2022-10-22T11:47:51;2.33;;;1.07;;
9200;SDS011;4635;48.686;9.008;2022-10-22T11:50:45;4.83;;;1.90;;
9200;SDS011;4635;48.686;9.008;2022-10-22T11:53:50;1.67;;;1.47;;
9200;SDS011;4635;48.686;9.008;2022-10-22T11:56:36;7.93;;;1.33;;
9200;SDS011;4635;48.686;9.008;2022-10-22T11:59:36;5.80;;;3.10;;
9200;SDS011;4635;48.686;9.008;2022-10-22T12:02:46;7.53;;;1.27;;
9200;SDS011;4635;48.686;9.008;2022-10-22T12:06:17;10.23;;;1.63;;
9200;SDS011;4635;48.686;9.008;2022-10-22T12:09:12;1.87;;;0.90;;
9200;SDS011;4635;48.686;9.008;2022-10-22T12:12:14;3.53;;;1.33;;
9200;SDS011;4635;48.686;9.008;2022-10-22T12:15:20;3.53;;;1.30;;
9200;SDS011;4635;48.686;9.008;2022-10-22T12:17:59;2.77;;;1.73;;
9200;SDS011;4635;48.686;9.008;2022-10-22T12:20:52;4.27;;;1.43;;
9200;SDS011;4635;48.686;9.008;2022-10-22T12:23:37;2.27;;;0.80;;
9200;SDS011;4635;48.686;9.008;2022-10-22T12:26:32;8.33;;;1.30;;
9200;SDS011;4635;48.686;9.008;2022-10-22T12:29:12;6.40;;;2.63;;
9200;SDS011;4635;48.686;9.008;2022-10-22T12:31:48;5.00;;;1.53;;
9200;SDS011;4635;48.686;9.008;2022-10-22T12:34:27;7.83;;;1.10;;
9200;SDS011;4635;48.686;9.008;2022-10-22T12:37:10;2.23;;;1.00;;
9200;SDS011;4635;48.686;9.008;2022-10-22T12:40:09;2.47;;;0.70;;
9200;SDS011;4635;48.686;9.008;2022-10-22T12:43:15;1.33;;;0.90;;
9200;SDS011;4635;48.686;9.008;2022-10-22T12:46:15;1.53;;;0.90;;
9200;SDS011;4635;48.686;9.008;2022-10-22T12:49:04;4.93;;;1.13;;
9200;SDS011;4635;48.686;9.008;2022-10-22T12:51:51;4.80;;;1.10;;
9200;SDS011;4635;48.686;9.008;2022-10-22T12:54:35;2.40;;;0.90;;
9200;SDS011;4635;48.686;9.008;2022-10-22T12:57:24;3.50;;;1.90;;
9200;SDS011;4635;48.686;9.008;2022-10-22T13:06:23;2.90;;;1.20;;
9200;SDS011;4635;48.686;9.008;2022-10-22T13:09:13;5.13;;;1.10;;
9200;SDS011;4635;48.686;9.008;2022-10-22T13:12:09;2.00;;;1.40;;
9200;SDS011;4635;48.686;9.008;2022-10-22T13:24:47;3.37;;;1.30;;
9200;SDS011;4635;48.686;9.008;2022-10-22T13:27:33;1.93;;;1.17;;
9200;SDS011;4635;48.686;9.008;2022-10-22T13:30:29;4.30;;;1.60;;
9200;SDS011;4635;48.686;9.008;2022-10-22T13:33:22;4.87;;;1.50;;
9200;SDS011;4635;48.686;9.008;2022-10-22T13:36:20;6.03;;;1.63;;
9200;SDS011;4635;48.686;9.008;2022-10-22T13:39:09;1.90;;;1.20;;
9200;SDS011;4635;48.686;9.008;2022-10-22T13:48:32;2.70;;;1.10;;
9200;SDS011;4635;48.686;9.008;2022-10-22T13:51:35;9.57;;;1.70;;
9200;SDS011;4635;48.686;9.008;2022-10-22T13:54:36;3.77;;;1.10;;
9200;SDS011;4635;48.686;9.008;2022-10-22T13:57:25;4.43;;;1.70;;
9200;SDS011;4635;48.686;9.008;2022-10-22T14:00:18;2.70;;;1.20;;
9200;SDS011;4635;48.686;9.008;2022-10-22T14:06:14;6.73;;;1.77;;
9200;SDS011;4635;48.686;9.008;2022-10-22T14:09:10;1.50;;;1.00;;
9200;SDS011;4635;48.686;9.008;2022-10-22T14:11:49;4.40;;;2.57;;
9200;SDS011;4635;48.686;9.008;2022-10-22T14:14:27;1.93;;;0.93;;
9200;SDS011;4635;48.686;9.008;2022-10-22T14:17:18;3.00;;;1.20;;
9200;SDS011;4635;48.686;9.008;2022-10-22T14:20:12;3.83;;;0.93;;
9200;SDS011;4635;48.686;9.008;2022-10-22T14:29:27;2.90;;;1.27;;
9200;SDS011;4635;48.686;9.008;2022-10-22T14:32:32;6.40;;;1.33;;
9200;SDS011;4635;48.686;9.008;2022-10-22T14:35:26;3.57;;;1.07;;
9200;SDS011;4635;48.686;9.008;2022-10-22T14:38:32;2.60;;;1.03;;
9200;SDS011;4635;48.686;9.008;2022-10-22T14:41:24;4.50;;;1.30;;
9200;SDS011;4635;48.686;9.008;2022-10-22T15:44:39;7.67;;;2.07;;
9200;SDS011;4635;48.686;9.008;2022-10-22T15:47:21;12.47;;;1.80;;
9200;SDS011;4635;48.686;9.008;2022-10-22T15:50:01;7.13;;;2.53;;
9200;SDS011;4635;48.686;9.008;2022-10-22T15:52:39;2.53;;;1.90;;
9200;SDS011;4635;48.686;9.008;2022-10-22T15:55:17;4.40;;;1.90;;
9200;SDS011;4635;48.686;9.008;2022-10-22T15:57:53;14.60;;;2.37;;
9200;SDS011;4635;48.686;9.008;2022-10-22T16:00:32;10.80;;;2.10;;
9200;SDS011;4635;48.686;9.008;2022-10-22T16:03:09;6.73;;;2.23;;
9200;SDS011;4635;48.686;9.008;2022-10-22T16:05:50;8.73;;;3.43;;
9200;SDS011;4635;48.686;9.008;2022-10-22T16:08:29;7.83;;;4.10;;
9200;SDS011;4635;48.686;9.008;2022-10-22T16:11:11;8.40;;;3.57;;
9200;SDS011;4635;48.686;9.008;2022-10-22T16:13:51;7.00;;;2.87;;
9200;SDS011;4635;48.686;9.008;2022-10-22T16:16:29;9.37;;;3.93;;
9200;SDS011;4635;48.686;9.008;2022-10-22T16:19:29;13.33;;;6.97;;
9200;SDS011;4635;48.686;9.008;2022-10-22T16:22:04;10.33;;;3.60;;
9200;SDS011;4635;48.686;9.008;2022-10-22T16:24:47;12.33;;;3.80;;
9200;SDS011;4635;48.686;9.008;2022-10-22T16:27:30;5.00;;;2.30;;
9200;SDS011;4635;48.686;9.008;2022-10-22T16:30:06;12.77;;;2.80;;
9200;SDS011;4635;48.686;9.008;2022-10-22T16:32:49;9.53;;;3.30;;
9200;SDS011;4635;48.686;9.008;2022-10-22T16:35:31;7.43;;;2.83;;
9200;SDS011;4635;48.686;9.008;2022-10-22T16:38:14;12.33;;;3.03;;
9200;SDS011;4635;48.686;9.008;2022-10-22T16:40:48;4.47;;;3.33;;
9200;SDS011;4635;48.686;9.008;2022-10-22T16:43:26;13.00;;;5.53;;
9200;SDS011;4635;48.686;9.008;2022-10-22T16:46:02;7.30;;;4.90;;
9200;SDS011;4635;48.686;9.008;2022-10-22T16:48:42;5.90;;;3.57;;
9200;SDS011;4635;48.686;9.008;2022-10-22T16:51:17;15.50;;;5.70;;
9200;SDS011;4635;48.686;9.008;2022-10-22T16:53:56;8.30;;;4.93;;
9200;SDS011;4635;48.686;9.008;2022-10-22T16:56:36;14.87;;;7.13;;
9200;SDS011;4635;48.686;9.008;2022-10-22T16:59:18;9.67;;;4.93;;
9200;SDS011;4635;48.686;9.008;2022-10-22T17:01:52;12.70;;;6.33;;
9200;SDS011;4635;48.686;9.008;2022-10-22T17:04:30;9.77;;;4.17;;
9200;SDS011;4635;48.686;9.008;2022-10-22T17:07:07;8.20;;;4.73;;
9200;SDS011;4635;48.686;9.008;2022-10-22T17:09:40;9.53;;;5.33;;
9200;SDS011;4635;48.686;9.008;2022-10-22T17:12:16;21.53;;;4.83;;
9200;SDS011;4635;48.686;9.008;2022-10-22T17:14:53;9.23;;;5.27;;
9200;SDS011;4635;48.686;9.008;2022-10-22T17:17:27;8.07;;;4.90;;
9200;SDS011;4635;48.686;9.008;2022-10-22T17:20:09;18.23;;;5.43;;
9200;SDS011;4635;48.686;9.008;2022-10-22T17:22:43;17.37;;;7.43;;
9200;SDS011;4635;48.686;9.008;2022-10-22T17:25:35;17.10;;;7.73;;
9200;SDS011;4635;48.686;9.008;2022-10-22T17:28:36;11.60;;;6.80;;
9200;SDS011;4635;48.686;9.008;2022-10-22T17:31:15;15.43;;;6.97;;
9200;SDS011;4635;48.686;9.008;2022-10-22T17:33:50;21.50;;;8.00;;
9200;SDS011;4635;48.686;9.008;2022-10-22T17:36:31;14.13;;;6.10;;
9200;SDS011;4635;48.686;9.008;2022-10-22T17:39:10;19.10;;;5.50;;
9200;SDS011;4635;48.686;9.008;2022-10-22T17:41:49;15.93;;;6.30;;
9200;SDS011;4635;48.686;9.008;2022-10-22T17:44:28;13.10;;;5.57;;
9200;SDS011;4635;48.686;9.008;2022-10-22T17:47:07;12.23;;;4.67;;
9200;SDS011;4635;48.686;9.008;2022-10-22T17:49:41;15.00;;;5.47;;
9200;SDS011;4635;48.686;9.008;2022-10-22T17:52:30;15.83;;;6.13;;
9200;SDS011;4635;48.686;9.008;2022-10-22T17:55:10;18.17;;;7.40;;
9200;SDS011;4635;48.686;9.008;2022-10-22T17:57:45;21.47;;;7.20;;
9200;SDS011;4635;48.686;9.008;2022-10-22T18:00:25;21.83;;;8.93;;
9200;SDS011;4635;48.686;9.008;2022-10-22T18:03:01;17.97;;;6.67;;
9200;SDS011;4635;48.686;9.008;2022-10-22T18:05:39;11.93;;;6.40;;
9200;SDS011;4635;48.686;9.008;2022-10-22T18:08:20;15.13;;;5.40;;
9200;SDS011;4635;48.686;9.008;2022-10-22T18:10:56;13.60;;;5.40;;
9200;SDS011;4635;48.686;9.008;2022-10-22T18:13:40;20.03;;;5.10;;
9200;SDS011;4635;48.686;9.008;2022-10-22T18:16:18;10.53;;;4.93;;
9200;SDS011;4635;48.686;9.008;2022-10-22T18:18:54;7.73;;;4.23;;
9200;SDS011;4635;48.686;9.008;2022-10-22T18:21:30;6.87;;;5.20;;
9200;SDS011;4635;48.686;9.008;2022-10-22T18:24:20;13.00;;;4.60;;
9200;SDS011;4635;48.686;9.008;2022-10-22T18:26:56;11.10;;;3.50;;
9200;SDS011;4635;48.686;9.008;2022-10-22T18:29:31;8.60;;;3.77;;
9200;SDS011;4635;48.686;9.008;2022-10-22T18:32:07;12.60;;;3.93;;
9200;SDS011;4635;48.686;9.008;2022-10-22T18:34:42;11.73;;;4.60;;
9200;SDS011;4635;48.686;9.008;2022-10-22T18:37:27;7.57;;;4.10;;
9200;SDS011;4635;48.686;9.008;2022-10-22T18:43:20;22.53;;;5.20;;
9200;SDS011;4635;48.686;9.008;2022-10-22T18:46:08;31.20;;;19.40;;
9200;SDS011;4635;48.686;9.008;2022-10-22T18:48:44;18.37;;;5.70;;
9200;SDS011;4635;48.686;9.008;2022-10-22T18:51:28;8.93;;;4.43;;
9200;SDS011;4635;48.686;9.008;2022-10-22T18:54:14;9.40;;;5.07;;
9200;SDS011;4635;48.686;9.008;2022-10-22T18:56:55;17.23;;;4.97;;
9200;SDS011;4635;48.686;9.008;2022-10-22T18:59:32;13.10;;;5.43;;
9200;SDS011;4635;48.686;9.008;2022-10-22T19:02:12;9.20;;;5.03;;